createdAt,value
2019-02-18T00:00:45.276Z,53.10
2019-02-18T00:03:34.973Z,46.53
2019-02-18T00:06:26.045Z,49.58
2019-02-18T00:09:16.152Z,60.23
2019-02-18T00:12:06.085Z,49.88
2019-02-18T00:14:55.865Z,46.50
2019-02-18T00:17:45.726Z,55.90
2019-02-18T00:20:35.592Z,55.23
2019-02-18T00:23:25.696Z,50.67
2019-02-18T00:26:15.495Z,50.65
2019-02-18T00:29:05.765Z,45.43
2019-02-18T00:31:55.764Z,55.80
2019-02-18T00:34:45.412Z,50.05
2019-02-18T00:37:35.615Z,47.58
2019-02-18T00:40:25.451Z,55.52
2019-02-18T00:43:15.375Z,54.38
2019-02-18T00:46:05.421Z,47.03
2019-02-18T00:48:55.143Z,47.00
2019-02-18T00:51:44.802Z,47.48
2019-02-18T00:54:34.692Z,41.92
2019-02-18T00:57:24.354Z,44.50
2019-02-18T01:00:15.826Z,52.58
2019-02-18T01:03:06.151Z,50.55
2019-02-18T01:05:55.979Z,43.13
2019-02-18T01:08:45.834Z,44.48
2019-02-18T01:11:35.532Z,47.05
2019-02-18T01:14:24.999Z,47.03
2019-02-18T01:17:14.871Z,46.13
2019-02-18T01:20:05.094Z,50.38
2019-02-18T01:22:54.754Z,48.10
2019-02-18T01:25:44.650Z,56.20
2019-02-18T01:28:34.513Z,48.40
2019-02-18T01:31:24.381Z,53.50
2019-02-18T01:34:14.319Z,55.40
2019-02-18T01:37:04.045Z,44.18
2019-02-18T01:39:53.844Z,46.37
2019-02-18T01:42:46.458Z,52.25
2019-02-18T01:45:36.128Z,50.95
2019-02-18T01:48:26.028Z,47.00
2019-02-18T01:51:15.554Z,46.13
2019-02-18T01:54:05.205Z,52.20
2019-02-18T01:56:54.751Z,48.08
2019-02-18T01:59:44.399Z,46.33
2019-02-18T02:02:34.421Z,46.48
2019-02-18T02:05:24.440Z,42.90
2019-02-18T02:08:14.118Z,44.60
2019-02-18T02:11:04.264Z,37.93
2019-02-18T02:13:54.155Z,42.80
2019-02-18T02:16:43.756Z,49.77
2019-02-18T02:19:33.426Z,55.95
2019-02-18T02:22:23.051Z,42.03
2019-02-18T02:25:12.974Z,45.73
2019-02-18T02:28:02.823Z,46.95
2019-02-18T02:30:52.839Z,42.83
2019-02-18T02:33:42.859Z,49.15
2019-02-18T02:36:32.499Z,45.67
2019-02-18T02:39:22.465Z,40.65
2019-02-18T02:42:12.251Z,43.20
2019-02-18T02:45:02.342Z,40.98
2019-02-18T02:47:52.129Z,40.70
2019-02-18T02:50:42.124Z,40.33
2019-02-18T02:53:32.014Z,43.70
2019-02-18T02:56:21.881Z,37.80
2019-02-18T02:59:11.632Z,40.98
2019-02-18T03:02:01.562Z,37.58
2019-02-18T03:04:51.335Z,39.58
2019-02-18T03:07:41.271Z,39.92
2019-02-18T03:10:31.085Z,38.95
2019-02-18T03:13:20.897Z,39.95
2019-02-18T03:16:11.621Z,41.53
2019-02-18T03:19:01.423Z,38.98
2019-02-18T03:21:50.955Z,42.05
2019-02-18T03:25:24.392Z,38.50
2019-02-18T03:29:04.138Z,36.53
2019-02-18T03:31:53.836Z,36.15
2019-02-18T03:34:45.492Z,40.55
2019-02-18T03:37:35.755Z,35.20
2019-02-18T03:40:25.348Z,38.15
2019-02-18T03:43:14.993Z,36.42
2019-02-18T03:46:04.678Z,33.92
2019-02-18T03:48:54.586Z,38.08
2019-02-18T03:51:44.644Z,39.50
2019-02-18T03:54:34.501Z,40.00
2019-02-18T03:57:24.382Z,40.23
2019-02-18T04:00:14.672Z,40.95
2019-02-18T04:03:04.713Z,35.78
2019-02-18T04:05:54.713Z,41.80
2019-02-18T04:08:44.950Z,34.63
2019-02-18T04:11:35.107Z,37.58
2019-02-18T04:14:25.183Z,34.92
2019-02-18T04:17:15.222Z,44.90
2019-02-18T04:20:05.232Z,41.05
2019-02-18T04:22:55.483Z,41.33
2019-02-18T04:25:45.431Z,42.30
2019-02-18T04:28:35.140Z,38.60
2019-02-18T04:31:25.246Z,45.17
2019-02-18T04:34:14.905Z,41.08
2019-02-18T04:37:04.521Z,36.73
2019-02-18T04:39:54.492Z,38.85
2019-02-18T04:42:44.582Z,39.67
2019-02-18T04:45:34.333Z,38.73
2019-02-18T04:48:23.975Z,39.98
2019-02-18T04:51:13.833Z,37.20
2019-02-18T04:54:03.896Z,42.20
2019-02-18T04:56:53.507Z,36.83
2019-02-18T04:59:43.448Z,35.00
2019-02-18T05:02:33.122Z,35.30
2019-02-18T05:05:23.036Z,42.15
2019-02-18T05:08:12.803Z,34.40
2019-02-18T05:11:02.875Z,32.73
2019-02-18T05:13:52.947Z,35.68
2019-02-18T05:16:43.086Z,39.55
2019-02-18T05:19:32.857Z,38.55
2019-02-18T05:22:22.526Z,39.60
2019-02-18T05:25:13.077Z,32.28
2019-02-18T05:28:02.873Z,35.15
2019-02-18T05:30:52.985Z,40.73
2019-02-18T05:33:42.885Z,38.50
2019-02-18T05:36:32.604Z,39.58
2019-02-18T05:39:22.451Z,33.78
2019-02-18T05:42:12.097Z,35.00
2019-02-18T05:45:02.016Z,39.03
2019-02-18T05:47:52.033Z,31.75
2019-02-18T05:50:42.105Z,37.85
2019-02-18T05:53:31.929Z,37.88
2019-02-18T05:56:22.317Z,37.00
2019-02-18T05:59:12.006Z,34.13
2019-02-18T06:02:01.574Z,35.00
2019-02-18T06:04:51.333Z,31.97
2019-02-18T06:07:42.881Z,31.57
2019-02-18T06:10:32.614Z,33.48
2019-02-18T06:13:22.400Z,32.30
2019-02-18T06:16:12.602Z,35.70
2019-02-18T06:19:02.409Z,34.43
2019-02-18T06:21:52.105Z,35.10
2019-02-18T06:24:41.885Z,32.08
2019-02-18T06:27:31.822Z,33.75
2019-02-18T06:30:21.854Z,32.80
2019-02-18T06:33:11.653Z,34.40
2019-02-18T06:36:01.183Z,34.50
2019-02-18T06:38:51.346Z,33.40
2019-02-18T06:41:40.965Z,37.20
2019-02-18T06:44:48.420Z,35.52
2019-02-18T06:47:38.118Z,38.13
2019-02-18T06:50:27.979Z,35.75
2019-02-18T06:53:17.873Z,38.00
2019-02-18T06:56:07.885Z,32.28
2019-02-18T06:59:08.480Z,36.90
2019-02-18T07:02:03.087Z,31.23
2019-02-18T07:05:02.150Z,35.90
2019-02-18T07:08:01.881Z,35.45
2019-02-18T07:11:01.593Z,34.50
2019-02-18T07:13:51.413Z,34.38
2019-02-18T07:16:41.460Z,34.30
2019-02-18T07:19:31.343Z,34.73
2019-02-18T07:22:21.461Z,34.20
2019-02-18T07:25:12.067Z,31.35
2019-02-18T07:28:01.640Z,36.88
2019-02-18T07:30:51.392Z,29.40
2019-02-18T07:33:41.396Z,36.58
2019-02-18T07:36:31.373Z,33.58
2019-02-18T07:39:20.922Z,35.05
2019-02-18T07:42:10.522Z,31.90
2019-02-18T07:45:00.299Z,37.03
2019-02-18T07:47:50.323Z,34.08
2019-02-18T07:50:40.255Z,28.38
2019-02-18T07:53:30.054Z,37.45
2019-02-18T07:56:19.817Z,36.15
2019-02-18T07:59:09.814Z,37.50
2019-02-18T08:01:59.796Z,32.10
2019-02-18T08:04:49.713Z,32.98
2019-02-18T08:07:39.536Z,38.40
2019-02-18T08:10:29.145Z,31.50
2019-02-18T08:13:19.133Z,29.02
2019-02-18T08:16:09.193Z,30.20
2019-02-18T08:18:59.032Z,30.60
2019-02-18T08:21:49.053Z,26.37
2019-02-18T08:24:39.053Z,32.40
2019-02-18T08:27:28.425Z,31.42
2019-02-18T08:30:18.503Z,32.25
2019-02-18T08:33:08.680Z,35.68
2019-02-18T08:35:58.894Z,29.82
2019-02-18T08:38:48.777Z,27.62
2019-02-18T08:41:38.763Z,31.77
2019-02-18T08:44:28.955Z,28.83
2019-02-18T08:47:18.991Z,27.25
2019-02-18T08:50:10.734Z,27.45
2019-02-18T08:53:00.392Z,26.42
2019-02-18T08:55:50.523Z,31.40
2019-02-18T08:58:40.795Z,26.90
2019-02-18T09:01:30.418Z,31.30
2019-02-18T09:04:20.467Z,35.30
2019-02-18T09:07:10.206Z,26.07
2019-02-18T09:09:59.912Z,29.15
2019-02-18T09:12:49.791Z,29.35
2019-02-18T09:15:39.694Z,24.32
2019-02-18T09:18:29.605Z,24.30
2019-02-18T09:21:19.765Z,25.70
2019-02-18T09:24:31.536Z,22.95
2019-02-18T09:27:21.426Z,29.60
2019-02-18T09:30:11.733Z,29.30
2019-02-18T09:33:01.483Z,27.60
2019-02-18T09:35:51.705Z,29.60
2019-02-18T09:38:41.894Z,30.90
2019-02-18T09:41:32.014Z,29.60
2019-02-18T09:44:21.985Z,35.33
2019-02-18T09:47:12.155Z,29.85
2019-02-18T09:50:02.161Z,26.75
2019-02-18T09:52:52.126Z,31.17
2019-02-18T09:55:42.429Z,33.98
2019-02-18T09:58:32.576Z,33.88
2019-02-18T10:01:22.095Z,35.52
2019-02-18T10:04:12.237Z,28.12
2019-02-18T10:07:02.175Z,36.03
2019-02-18T10:09:52.032Z,39.15
2019-02-18T10:12:42.145Z,38.13
2019-02-18T10:15:32.017Z,35.83
2019-02-18T10:18:22.016Z,33.85
2019-02-18T10:21:11.968Z,28.95
2019-02-18T10:24:01.866Z,31.50
2019-02-18T10:26:52.774Z,34.13
2019-02-18T10:29:42.746Z,33.33
2019-02-18T10:32:32.496Z,33.80
2019-02-18T10:35:22.307Z,35.48
2019-02-18T10:38:12.184Z,28.83
2019-02-18T10:41:06.944Z,32.93
2019-02-18T10:43:54.798Z,28.65
2019-02-18T10:46:45.004Z,28.30
2019-02-18T10:49:34.413Z,30.48
2019-02-18T10:52:24.633Z,31.62
2019-02-18T10:55:14.531Z,36.38
2019-02-18T10:58:04.532Z,36.77
2019-02-18T11:00:54.682Z,33.40
2019-02-18T11:03:44.819Z,28.15
2019-02-18T11:06:34.795Z,28.02
2019-02-18T11:09:25.429Z,32.45
2019-02-18T11:12:15.396Z,29.63
2019-02-18T11:15:05.705Z,25.02
2019-02-18T11:17:55.721Z,28.50
2019-02-18T11:20:45.934Z,23.25
2019-02-18T11:23:37.711Z,31.25
2019-02-18T11:26:28.235Z,42.70
2019-02-18T11:29:17.322Z,27.05
2019-02-18T11:32:06.826Z,28.35
2019-02-18T11:34:56.674Z,28.05
2019-02-18T11:37:46.780Z,32.90
2019-02-18T11:40:36.415Z,27.65
2019-02-18T11:43:26.203Z,28.67
2019-02-18T11:46:16.257Z,24.50
2019-02-18T11:49:06.087Z,19.05
2019-02-18T11:51:55.752Z,29.07
2019-02-18T11:54:45.571Z,24.82
2019-02-18T11:57:35.955Z,23.60
2019-02-18T12:00:25.865Z,26.52
2019-02-18T12:03:15.802Z,22.52
2019-02-18T12:06:06.212Z,23.18
2019-02-18T12:08:56.091Z,24.10
2019-02-18T12:11:46.205Z,27.42
2019-02-18T12:14:36.143Z,20.57
2019-02-18T12:17:25.985Z,25.02
2019-02-18T12:20:16.197Z,23.52
2019-02-18T12:23:06.132Z,22.87
2019-02-18T12:25:55.932Z,19.73
2019-02-18T12:28:45.532Z,18.95
2019-02-18T12:31:34.932Z,17.90
2019-02-18T12:34:24.525Z,24.25
2019-02-18T12:37:15.012Z,20.75
2019-02-18T12:40:05.113Z,19.40
2019-02-18T12:42:55.315Z,22.50
2019-02-18T12:45:45.653Z,20.35
2019-02-18T12:48:36.789Z,19.20
2019-02-18T12:51:26.641Z,18.90
2019-02-18T12:54:17.127Z,17.00
2019-02-18T12:57:07.212Z,29.23
2019-02-18T12:59:57.278Z,24.63
2019-02-18T13:02:47.195Z,15.93
2019-02-18T13:05:37.075Z,25.68
2019-02-18T13:08:27.606Z,18.48
2019-02-18T13:11:17.671Z,20.60
2019-02-18T13:14:07.285Z,19.25
2019-02-18T13:16:57.152Z,25.48
2019-02-18T13:19:47.342Z,18.40
2019-02-18T13:22:37.649Z,20.07
2019-02-18T13:25:27.475Z,20.80
2019-02-18T13:28:17.382Z,18.10
2019-02-18T13:31:07.162Z,16.27
2019-02-18T13:33:57.465Z,23.23
2019-02-18T13:36:47.594Z,18.80
2019-02-18T13:39:38.131Z,19.48
2019-02-18T13:42:27.911Z,18.60
2019-02-18T13:45:17.754Z,19.15
2019-02-18T13:48:07.674Z,19.07
2019-02-18T13:50:57.410Z,19.23
2019-02-18T13:53:47.338Z,18.60
2019-02-18T13:56:37.321Z,20.05
2019-02-18T13:59:27.302Z,20.80
2019-02-18T14:02:17.300Z,25.00
2019-02-18T14:05:07.191Z,16.77
2019-02-18T14:07:57.205Z,21.02
2019-02-18T14:10:46.944Z,23.20
2019-02-18T14:13:36.954Z,20.97
2019-02-18T14:16:27.017Z,19.27
2019-02-18T14:19:16.872Z,21.75
2019-02-18T14:22:08.305Z,19.87
2019-02-18T14:24:58.112Z,20.27
2019-02-18T14:27:48.065Z,30.17
2019-02-18T14:30:37.874Z,21.42
2019-02-18T14:33:27.324Z,17.87
2019-02-18T14:36:17.035Z,21.65
2019-02-18T14:39:13.755Z,21.35
2019-02-18T14:42:03.432Z,18.15
2019-02-18T14:44:53.613Z,21.25
2019-02-18T14:47:43.392Z,23.55
2019-02-18T14:50:33.135Z,16.50
2019-02-18T14:53:23.134Z,23.67
2019-02-18T14:56:16.131Z,18.50
2019-02-18T14:59:06.105Z,20.80
2019-02-18T15:01:56.084Z,23.10
2019-02-18T15:04:46.091Z,23.65
2019-02-18T15:07:36.337Z,18.37
2019-02-18T15:10:26.253Z,28.55
2019-02-18T15:13:16.116Z,22.52
2019-02-18T15:16:06.405Z,26.75
2019-02-18T15:18:55.867Z,24.35
2019-02-18T15:21:46.204Z,21.23
2019-02-18T15:24:36.168Z,23.52
2019-02-18T15:27:26.154Z,28.12
2019-02-18T15:30:16.503Z,21.40
2019-02-18T15:33:06.402Z,20.10
2019-02-18T15:35:56.374Z,20.57
2019-02-18T15:38:46.774Z,18.67
2019-02-18T15:41:37.264Z,19.48
2019-02-18T15:44:27.503Z,18.95
2019-02-18T15:47:17.635Z,22.02
2019-02-18T15:50:08.937Z,19.80
2019-02-18T15:52:59.187Z,23.38
2019-02-18T15:55:48.898Z,28.25
2019-02-18T15:58:38.844Z,25.97
2019-02-18T16:01:30.284Z,19.25
2019-02-18T16:04:20.365Z,21.25
2019-02-18T16:07:10.396Z,24.30
2019-02-18T16:10:00.517Z,22.42
2019-02-18T16:12:51.177Z,25.88
2019-02-18T16:15:41.286Z,24.05
2019-02-18T16:18:31.415Z,25.68
2019-02-18T16:21:21.425Z,24.50
2019-02-18T16:24:19.655Z,21.17
2019-02-18T16:27:02.351Z,27.55
2019-02-18T16:29:52.371Z,23.57
2019-02-18T16:32:42.266Z,25.00
2019-02-18T16:35:31.812Z,24.70
2019-02-18T16:38:21.793Z,23.77
2019-02-18T16:41:11.824Z,20.82
2019-02-18T16:44:05.126Z,23.65
2019-02-18T16:46:55.723Z,34.88
2019-02-18T16:49:45.701Z,95.12
2019-02-18T16:52:35.791Z,176.02
2019-02-18T16:55:25.727Z,108.83
2019-02-18T16:58:15.784Z,63.83
2019-02-18T17:01:07.333Z,59.30
2019-02-18T17:03:57.325Z,42.10
2019-02-18T17:06:47.271Z,59.10
2019-02-18T17:09:37.151Z,31.77
2019-02-18T17:12:26.531Z,33.65
2019-02-18T17:15:16.437Z,31.62
2019-02-18T17:18:06.270Z,31.25
2019-02-18T17:20:56.299Z,27.65
2019-02-18T17:23:46.064Z,28.50
2019-02-18T17:26:36.091Z,29.63
2019-02-18T17:29:26.295Z,28.23
2019-02-18T17:32:15.853Z,30.37
2019-02-18T17:35:06.065Z,29.30
2019-02-18T17:37:57.401Z,26.62
2019-02-18T17:40:47.704Z,32.45
2019-02-18T17:43:37.985Z,27.48
2019-02-18T17:46:27.954Z,31.52
2019-02-18T17:49:17.681Z,30.80
2019-02-18T17:52:07.625Z,33.18
2019-02-18T17:54:57.845Z,28.17
2019-02-18T17:57:47.702Z,31.52
2019-02-18T18:00:38.891Z,32.28
2019-02-18T18:03:28.886Z,27.20
2019-02-18T18:06:19.285Z,30.95
2019-02-18T18:09:09.704Z,30.15
2019-02-18T18:12:00.241Z,30.62
2019-02-18T18:14:49.995Z,34.35
2019-02-18T18:17:40.066Z,33.38
2019-02-18T18:20:29.865Z,35.33
2019-02-18T18:23:19.736Z,34.80
2019-02-18T18:26:09.575Z,34.43
2019-02-18T18:28:59.822Z,41.45
2019-02-18T18:31:50.025Z,35.75
2019-02-18T18:34:40.948Z,31.73
2019-02-18T18:37:30.875Z,40.15
2019-02-18T18:40:20.890Z,36.48
2019-02-18T18:43:10.647Z,40.23
2019-02-18T18:46:00.635Z,39.33
2019-02-18T18:48:50.383Z,34.45
2019-02-18T18:51:40.396Z,40.05
2019-02-18T18:54:30.194Z,40.15
2019-02-18T18:57:20.338Z,42.20
2019-02-18T19:00:14.415Z,37.70
2019-02-18T19:03:04.322Z,42.70
2019-02-18T19:05:53.961Z,43.17
2019-02-18T19:08:43.914Z,45.20
2019-02-18T19:11:33.868Z,42.27
2019-02-18T19:14:23.657Z,39.65
2019-02-18T19:17:13.824Z,43.17
2019-02-18T19:20:03.825Z,40.50
2019-02-18T19:22:54.244Z,39.03
2019-02-18T19:25:45.646Z,39.98
2019-02-18T19:28:35.915Z,44.95
2019-02-18T19:31:25.801Z,43.40
2019-02-18T19:34:15.673Z,44.88
2019-02-18T19:37:05.781Z,41.98
2019-02-18T19:39:55.835Z,40.30
2019-02-18T19:42:45.732Z,42.67
2019-02-18T19:45:36.511Z,47.05
2019-02-18T19:48:26.355Z,48.40
2019-02-18T19:51:16.086Z,45.88
2019-02-18T19:54:06.371Z,46.53
2019-02-18T19:56:56.364Z,47.35
2019-02-18T19:59:46.191Z,42.25
2019-02-18T20:02:36.246Z,40.95
2019-02-18T20:05:25.954Z,42.93
2019-02-18T20:08:15.804Z,46.65
2019-02-18T20:11:05.605Z,56.88
2019-02-18T20:13:58.964Z,47.88
2019-02-18T20:16:46.593Z,45.08
2019-02-18T20:19:36.541Z,42.98
2019-02-18T20:22:26.932Z,44.90
2019-02-18T20:25:16.711Z,41.65
2019-02-18T20:28:07.535Z,44.35
2019-02-18T20:30:57.502Z,41.98
2019-02-18T20:33:47.402Z,49.30
2019-02-18T20:36:37.514Z,42.30
2019-02-18T20:39:27.622Z,48.98
2019-02-18T20:42:17.674Z,44.13
2019-02-18T20:45:08.141Z,47.93
2019-02-18T20:47:58.154Z,45.03
2019-02-18T20:50:48.281Z,42.35
2019-02-18T20:53:38.293Z,42.65
2019-02-18T20:56:28.111Z,45.75
2019-02-18T20:59:18.051Z,42.90
2019-02-18T21:02:08.014Z,40.90
2019-02-18T21:04:57.921Z,33.78
2019-02-18T21:07:48.264Z,34.75
2019-02-18T21:10:38.015Z,40.05
2019-02-18T21:13:28.015Z,38.67
2019-02-18T21:16:18.385Z,34.48
2019-02-18T21:19:08.062Z,35.35
2019-02-18T21:21:57.965Z,39.83
2019-02-18T21:24:47.533Z,29.60
2019-02-18T21:27:37.355Z,33.42
2019-02-18T21:30:27.412Z,39.75
2019-02-18T21:33:17.105Z,36.00
2019-02-18T21:36:07.183Z,37.20
2019-02-18T21:38:57.211Z,36.00
2019-02-18T21:41:47.152Z,35.48
2019-02-18T21:44:37.495Z,32.08
2019-02-18T21:47:27.301Z,37.80
2019-02-18T21:50:19.312Z,37.23
2019-02-18T21:53:09.078Z,38.05
2019-02-18T21:55:59.207Z,34.60
2019-02-18T21:58:49.012Z,33.50
2019-02-18T22:01:39.054Z,32.80
2019-02-18T22:04:29.474Z,32.85
2019-02-18T22:07:19.302Z,32.80
2019-02-18T22:10:09.237Z,30.52
2019-02-18T22:12:59.129Z,33.60
2019-02-18T22:15:48.805Z,33.48
2019-02-18T22:18:38.822Z,33.13
2019-02-18T22:21:28.785Z,39.58
2019-02-18T22:24:18.977Z,38.95
2019-02-18T22:27:08.907Z,39.65
2019-02-18T22:29:58.967Z,36.55
2019-02-18T22:32:49.006Z,40.05
2019-02-18T22:35:39.065Z,27.95
2019-02-18T22:38:29.275Z,35.30
2019-02-18T22:41:18.775Z,35.92
2019-02-18T22:44:09.058Z,36.17
2019-02-18T22:46:59.056Z,37.78
2019-02-18T22:49:49.024Z,37.55
2019-02-18T22:52:39.992Z,35.70
2019-02-18T22:55:30.133Z,31.70
2019-02-18T22:58:19.806Z,34.75
2019-02-18T23:01:10.095Z,30.25
2019-02-18T23:04:01.695Z,33.28
2019-02-18T23:06:51.389Z,31.25
2019-02-18T23:09:41.071Z,35.63
2019-02-18T23:12:31.452Z,30.43
2019-02-18T23:15:21.419Z,30.20
2019-02-18T23:18:11.845Z,36.10
2019-02-18T23:21:01.523Z,31.68
2019-02-18T23:23:51.397Z,37.05
2019-02-18T23:26:40.954Z,34.65
2019-02-18T23:29:30.434Z,35.73
2019-02-18T23:32:20.623Z,31.95
2019-02-18T23:35:10.694Z,30.02
2019-02-18T23:38:00.672Z,30.35
2019-02-18T23:40:50.432Z,31.62
2019-02-18T23:43:40.452Z,32.95
2019-02-18T23:46:30.233Z,29.65
2019-02-18T23:49:20.811Z,31.05
2019-02-18T23:52:11.293Z,31.65
2019-02-18T23:55:00.622Z,31.62
2019-02-18T23:57:49.986Z,32.45
